Archival Weather

Heathrow

London, United Kingdom (EGLL)

Report from: Friday, June 21, 2024 3:20 AM BST
Current time: Friday, July 19, 2024 3:56 AM BST

Current weather – Weather history – Daily summaries
Weather forecast

Temperature13.0°C (55.4°F)
Dew point9.0°C (48.2°F)
Winds 3 kts (1.5 m/s, 3.5 mph) South (190°)
Visibility6.2 mi. (10 km)
Clouds Sky clear
Altimeter30.00 in.Hg (1016 mB)
Relative humidity77 %
Density altitude-167 ft. (-51 m)
Remarks Fully automated report
Corrected report
No clouds detected
No significant changes expected in the next two hours
Flight conditions Visual Meteorological Conditions
Raw dataCOR EGLL 210220Z AUTO 19003KT 9999 NCD 13/09 Q1016 NOSIG
An error has occurred. This application may no longer respond until reloaded. Reload 🗙